createdAt,value
2022-10-19T00:00:15.116Z,10.47
2022-10-19T00:00:50.181Z,10.43
2022-10-19T00:01:25.277Z,10.40
2022-10-19T00:02:00.519Z,10.51
2022-10-19T00:02:35.645Z,10.39
2022-10-19T00:03:10.813Z,10.40
2022-10-19T00:03:46.380Z,10.37
2022-10-19T00:04:21.499Z,10.43
2022-10-19T00:04:56.674Z,10.39
2022-10-19T00:05:31.754Z,10.33
2022-10-19T00:06:07.229Z,10.34
2022-10-19T00:06:42.889Z,10.33
2022-10-19T00:07:18.050Z,10.40
2022-10-19T00:07:53.241Z,10.39
2022-10-19T00:08:28.939Z,10.37
2022-10-19T00:09:04.115Z,10.40
2022-10-19T00:09:39.214Z,10.40
2022-10-19T00:10:14.408Z,10.43
2022-10-19T00:10:49.375Z,10.39
2022-10-19T00:11:24.660Z,10.30
2022-10-19T00:12:00.150Z,10.36
2022-10-19T00:12:35.291Z,10.40
2022-10-19T00:13:10.514Z,10.36
2022-10-19T00:13:45.705Z,10.34
2022-10-19T00:14:20.752Z,10.32
2022-10-19T00:14:56.234Z,10.28
2022-10-19T00:15:31.404Z,10.33
2022-10-19T00:16:07.954Z,10.32
2022-10-19T00:16:41.771Z,10.28
2022-10-19T00:17:17.093Z,10.28
2022-10-19T00:17:52.274Z,10.28
2022-10-19T00:18:27.448Z,10.28
2022-10-19T00:19:02.740Z,10.28
2022-10-19T00:19:37.989Z,10.25
2022-10-19T00:20:13.390Z,10.25
2022-10-19T00:20:48.557Z,10.25
2022-10-19T00:21:23.743Z,10.28
2022-10-19T00:21:59.127Z,10.22
2022-10-19T00:22:34.756Z,10.34
2022-10-19T00:23:09.693Z,10.26
2022-10-19T00:23:44.863Z,10.26
2022-10-19T00:24:20.154Z,10.33
2022-10-19T00:24:55.321Z,10.24
2022-10-19T00:25:30.407Z,10.26
2022-10-19T00:26:05.712Z,10.30
2022-10-19T00:26:40.895Z,10.21
2022-10-19T00:27:16.172Z,10.22
2022-10-19T00:27:51.175Z,10.17
2022-10-19T00:28:26.548Z,10.25
2022-10-19T00:29:01.800Z,10.24
2022-10-19T00:29:36.947Z,10.30
2022-10-19T00:30:14.176Z,10.19
2022-10-19T22:00:56.605Z,8.55
2022-10-19T22:01:33.228Z,8.62
2022-10-19T22:02:06.937Z,8.60
2022-10-19T22:02:42.038Z,8.60
2022-10-19T22:03:17.426Z,8.50
2022-10-19T22:03:52.593Z,8.54
2022-10-19T22:04:28.150Z,8.40
2022-10-19T22:05:03.326Z,8.51
2022-10-19T22:05:38.596Z,8.47
2022-10-19T22:06:13.763Z,8.45
2022-10-19T22:06:48.870Z,8.50
2022-10-19T22:07:24.131Z,8.50
2022-10-19T22:07:59.853Z,8.45
2022-10-19T22:08:35.168Z,8.48
2022-10-19T22:09:10.405Z,8.44
2022-10-19T22:09:45.308Z,8.40
2022-10-19T22:10:20.371Z,8.37
2022-10-19T22:10:55.570Z,8.36
2022-10-19T22:11:30.937Z,8.40
2022-10-19T22:12:06.428Z,8.48
2022-10-19T22:12:50.061Z,8.42
2022-10-19T22:13:25.648Z,8.39
2022-10-19T22:14:00.712Z,8.39
2022-10-19T22:14:35.590Z,8.37
2022-10-19T22:15:11.079Z,8.36
2022-10-19T22:15:46.342Z,8.39
2022-10-19T22:16:21.708Z,8.35
2022-10-19T22:16:56.779Z,8.36
2022-10-19T22:17:31.981Z,8.40
2022-10-19T22:18:07.164Z,8.42
2022-10-19T22:18:42.343Z,8.37
2022-10-19T22:19:17.420Z,8.39
2022-10-19T22:19:52.598Z,8.35
2022-10-19T22:20:27.587Z,8.37
2022-10-19T22:21:02.872Z,8.30
